Changsha Huanghua International Airport (CSX/ZGHA)





Airport Information
Location: Changcha,
Coordinates: 28.1892 / 113.22
Field Elevation: 217ft
Longest Runway: 10,522ft
ILS Approaches: YES
Landing Fees: $216 per flight
Jet A Price: $0.36/lbs

Current Weather
METAR: ZGHA 070100Z VRB01MPS 3700 BR NSC 09/07 Q1028 NOSIG
TAF: TAF ZGHA 062102Z 0700/0724 36004MPS 4000 BR SCT050 TX16/0707Z TN05/0722Z

Recent Arrivals
Date Flight Type Depart
12/25/2019 CPX590 B744 Beijing Daxing Intl (ZBAD)
Recent Departures
Date Flight Type Arrive
12/26/2019 CPX2856 B744 Ted Stevens Anchorage Intl (PANC)